Weather reports worldwide

Advertisment
Großer Arber, Germany (10791): temperature & dewpoint: 07.07.2020 06:00:00 - 13.07.2020 06:00:00 (CEST)Großer Arber, Germany (10791): wind speed & gusts: 07.07.2020 06:00:00 - 13.07.2020 06:00:00 (CEST)Großer Arber, Germany (10791): wind direction: 07.07.2020 06:00:00 - 13.07.2020 06:00:00 (CEST)Großer Arber, Germany (10791): visibility: 07.07.2020 06:00:00 - 13.07.2020 06:00:00 (CEST)Großer Arber, Germany (10791): sunshine duration: 07.07.2020 06:00:00 - 13.07.2020 06:00:00 (CEST)Großer Arber, Germany (10791): precipitation: 07.07.2020 06:00:00 - 13.07.2020 06:00:00 (CEST)
Date & Time tt [°C] td [°C] ff [km/h] ff [kn] fx [km/h] fx [kn] dd vv [km] sd [min] rr [mm]
13.07.2020 06:00:00 6,9 3,4 14 8 18 10 E 74 5 0,0
13.07.2020 05:00:00 7,1 3,0 14 8 18 10 E 67 0 0,0
13.07.2020 04:00:00 7,1 3,0 13 7 19 10 E 68 0 0,0
13.07.2020 03:00:00 7,2 3,0 14 7 21 12 E 72 0 0,0
13.07.2020 02:00:00 7,8 3,5 14 8 20 11 E 73 0 0,0
13.07.2020 01:00:00 7,4 3,5 15 8 22 12 E 75 0 0,0
13.07.2020 00:00:00 7,5 3,7 14 8 21 11 E 75 0 0,0
12.07.2020 23:00:00 8,3 3,6 14 8 22 12 E 73 0 0,0
12.07.2020 22:00:00 8,4 3,5 11 6 20 11 ENE 74 11 0,0
12.07.2020 21:00:00 9,1 3,1 10 5 15 8 NNE 75 60 0,0
12.07.2020 20:00:00 10,8 3,0 7 4 14 7 NE 75 25 0,0
12.07.2020 19:00:00 10,0 3,4 8 4 16 9 NE 75 0 0,0
12.07.2020 18:00:00 10,9 3,6 7 4 13 7 NNW 64 0 0,0
12.07.2020 17:00:00 10,9 3,2 5 3 16 9 NE 54 13 0,0
12.07.2020 16:00:00 11,4 3,9 6 3 18 10 NW 58 11 0,0
12.07.2020 15:00:00 10,6 3,7 10 5 23 12 N 54 31 0,0
12.07.2020 14:00:00 10,5 4,2 7 4 22 12 NNE 58 4 0,0
12.07.2020 13:00:00 9,5 5,0 9 5 19 11 NNE 70 23 0,0
12.07.2020 12:00:00 10,6 4,7 11 6 20 11 NNE 61 10 0,0
12.07.2020 11:00:00 8,9 5,2 11 6 21 11 NNW 68 25 0,0
12.07.2020 10:00:00 8,1 3,4 6 4 14 7 NNW 75 18 0,0
12.07.2020 09:00:00 7,8 2,5 6 3 10 6 N 65 32 0,0
12.07.2020 08:00:00 8,3 1,6 5 3 9 5 NE 59 59 0,0
12.07.2020 07:00:00 7,2 4,6 4 2 10 5 ENE 32 16 0,0
12.07.2020 06:00:00 6,2 3,8 5 3 7 4 E 56 5 0,0
12.07.2020 05:00:00 6,1 3,5 7 4 8 4 ESE 49 0 0,0
12.07.2020 04:00:00 6,3 3,4 4 2 6 4 E 55 0 0,0
12.07.2020 03:00:00 6,4 4,2 6 3 9 5 ESE 47 0 0,0
12.07.2020 02:00:00 6,5 3,8 8 4 16 8 E 52 0 0,0
12.07.2020 01:00:00 6,9 3,4 10 6 16 8 NE 64 0 0,0
12.07.2020 00:00:00 6,8 3,5 12 7 20 11 NE 63 0 0,0
11.07.2020 23:00:00 6,8 3,7 14 7 21 11 NE 54 0 0,0
11.07.2020 22:00:00 6,5 4,0 16 9 23 12 NE 56 1 0,0
11.07.2020 21:00:00 6,9 4,9 17 9 21 11 NNE 41 40 0,0
11.07.2020 20:00:00 6,9 6,2 17 9 32 18 N 17 3 0,3
11.07.2020 19:00:00 10,2 7,8 9 5 18 10 N 43 35 0,0
11.07.2020 18:00:00 9,3 7,2 11 6 24 13 N 34 26 0,0
11.07.2020 17:00:00 9,5 8,4 11 6 22 12 N 23 20 0,0
11.07.2020 16:00:00 8,7 6,9 16 9 29 15 N 32 8 0,0
11.07.2020 15:00:00 8,4 8,3 11 6 22 12 N 0,3 0 0,0
11.07.2020 14:00:00 7,6 7,6 14 8 23 12 NE 0,2 5 0,0
11.07.2020 13:00:00 7,3 7,3 14 8 23 12 NE 0,1 0 0,1
11.07.2020 12:00:00 6,8 6,8 13 7 19 10 NNE 0,1 0 1,3
11.07.2020 11:00:00 7,6 7,6 12 6 23 12 NNW - 0 1,6
11.07.2020 10:00:00 8,6 8,5 13 7 28 15 WSW 15 0 1,9
11.07.2020 09:00:00 8,8 8,2 10 5 21 11 NW 14 0 1,4
11.07.2020 08:00:00 8,8 8,4 8 4 17 9 NNW 8 0 1,7
11.07.2020 07:00:00 8,9 8,7 7 4 13 7 NE 0,1 0 1,1
11.07.2020 06:00:00 9,6 9,2 8 5 12 7 N 9 0 0,8
11.07.2020 05:00:00 9,6 9,0 8 4 12 6 WSW 25 0 0,0
11.07.2020 04:00:00 10,0 8,9 8 4 11 6 WNW 50 0 0,0
11.07.2020 03:00:00 9,3 9,1 11 6 21 12 NW 11 0 0,0
11.07.2020 02:00:00 10,2 8,5 14 8 18 10 NW 67 0 0,0
11.07.2020 01:00:00 10,4 8,3 14 8 23 12 NNW 75 0 0,0
11.07.2020 00:00:00 11,0 7,7 14 8 36 19 WNW 70 0 0,1
10.07.2020 23:00:00 10,5 8,6 26 14 43 23 W 32 0 0,7
10.07.2020 22:00:00 12,9 9,2 27 15 46 25 WNW 65 0 0,0
10.07.2020 21:00:00 14,1 11,3 31 17 53 28 NW 66 4 0,0
10.07.2020 20:00:00 15,6 11,3 31 17 49 26 NW 57 2 0,0
10.07.2020 19:00:00 17,4 12,1 28 15 44 24 NW 54 33 0,0
10.07.2020 18:00:00 17,5 11,9 29 16 51 28 W 62 10 0,0
10.07.2020 17:00:00 21,8 12,4 28 15 53 29 SW 56 27 0,0
10.07.2020 16:00:00 20,1 11,6 31 17 54 29 SW 75 12 0,0
10.07.2020 15:00:00 19,8 11,4 30 16 50 27 WSW 62 16 0,0
10.07.2020 14:00:00 19,0 11,9 24 13 46 25 S 59 28 0,0
10.07.2020 13:00:00 18,8 11,1 24 13 40 21 SSW 75 55 0,0
10.07.2020 12:00:00 18,6 10,7 19 10 35 19 S 53 49 0,0
10.07.2020 11:00:00 18,3 10,0 23 13 41 22 S 53 60 0,0
10.07.2020 10:00:00 17,3 11,1 22 12 38 20 S 27 60 0,0
10.07.2020 09:00:00 16,7 9,3 25 14 37 20 S 55 60 0,0
10.07.2020 08:00:00 16,3 8,9 18 10 33 18 S 59 60 0,0
10.07.2020 07:00:00 16,1 8,8 23 12 34 19 SW 75 16 0,0
10.07.2020 06:00:00 15,1 8,7 24 13 35 19 SW 72 0 0,0
10.07.2020 05:00:00 14,6 9,3 26 14 34 18 SSW 60 0 0,0
10.07.2020 04:00:00 14,2 10,7 24 13 32 17 SSW 49 0 0,0
10.07.2020 03:00:00 14,3 10,9 20 11 35 19 SSW 49 0 0,0
10.07.2020 02:00:00 14,6 11,0 23 12 33 18 S 53 0 0,0
10.07.2020 01:00:00 14,5 11,1 21 11 33 18 SSW 55 0 0,0
10.07.2020 00:00:00 14,7 11,3 22 12 36 20 SSW 57 0 0,0
09.07.2020 23:00:00 14,7 10,7 24 13 35 19 SSW 75 0 0,0
09.07.2020 22:00:00 15,2 10,3 30 16 40 21 SW 69 6 0,0
09.07.2020 21:00:00 15,5 10,0 31 17 41 22 SW 64 54 0,0
09.07.2020 20:00:00 16,8 9,9 26 14 38 21 WSW 57 57 0,0
09.07.2020 19:00:00 17,7 11,0 23 12 41 22 SW 48 58 0,0
09.07.2020 18:00:00 17,4 10,8 23 12 42 23 SW 55 43 0,0
09.07.2020 17:00:00 17,3 10,3 31 17 52 28 SW 64 49 0,0
09.07.2020 16:00:00 17,2 12,3 21 12 40 22 SSW 56 48 0,0
09.07.2020 15:00:00 16,1 12,0 23 13 49 26 SSW 75 40 0,0
09.07.2020 14:00:00 15,3 11,4 27 15 43 23 SW 75 26 0,0
09.07.2020 13:00:00 14,0 11,0 23 12 41 22 WSW 53 13 0,0
09.07.2020 12:00:00 12,7 11,0 24 13 41 22 SW 37 4 0,0
09.07.2020 11:00:00 11,9 10,5 26 14 42 23 SW 35 2 0,0
09.07.2020 10:00:00 10,5 9,7 31 17 37 20 WSW 26 0 0,0
09.07.2020 09:00:00 10,5 9,3 34 19 44 24 WSW 32 0 0,0
09.07.2020 08:00:00 9,8 9,2 36 19 48 26 WSW 23 0 0,0
09.07.2020 07:00:00 9,1 8,6 37 20 52 28 WSW 25 0 0,0
09.07.2020 06:00:00 8,8 8,6 39 21 47 25 WSW 23 0 0,0
09.07.2020 05:00:00 8,7 8,7 36 19 43 23 WSW 7 0 0,0
09.07.2020 04:00:00 8,9 8,9 36 19 49 27 WSW - 0 0,2
09.07.2020 03:00:00 9,3 9,3 42 23 57 31 W - 0 0,0
09.07.2020 02:00:00 9,3 9,3 40 22 57 31 W - 0 0,1
09.07.2020 01:00:00 9,3 9,3 43 23 67 36 W - 0 0,2
09.07.2020 00:00:00 9,2 9,2 49 26 69 38 W - 0 0,1
08.07.2020 23:00:00 8,9 8,9 43 23 64 35 W - 0 0,6
08.07.2020 22:00:00 8,7 8,7 34 18 64 35 WNW - 0 0,4
08.07.2020 21:00:00 8,4 8,4 28 15 53 28 WNW - 0 0,4
08.07.2020 20:00:00 8,7 8,2 37 20 55 30 W 20 0 0,3
08.07.2020 19:00:00 8,7 8,2 36 19 49 26 W 18 0 0,4
08.07.2020 18:00:00 9,8 9,1 25 13 31 17 W 19 0 0,7
08.07.2020 17:00:00 10,3 8,8 21 11 37 20 W 22 0 0,2
08.07.2020 16:00:00 11,9 7,6 28 15 45 24 WSW 58 0 0,0
08.07.2020 15:00:00 12,7 7,3 30 16 47 26 WSW 75 9 0,0
08.07.2020 14:00:00 12,7 6,7 33 18 45 24 SW 55 12 0,0
08.07.2020 13:00:00 11,6 6,3 32 17 45 24 SW 52 58 0,0
08.07.2020 12:00:00 12,3 6,0 29 16 49 26 SW 46 57 0,0
08.07.2020 11:00:00 11,7 5,8 32 17 48 26 SW 57 59 0,0
08.07.2020 10:00:00 10,6 5,7 24 13 43 23 SW 36 56 0,0
08.07.2020 09:00:00 9,1 4,7 26 14 37 20 SW 54 27 0,0
08.07.2020 08:00:00 7,7 4,0 23 13 40 21 SW 51 15 0,0
08.07.2020 07:00:00 7,6 3,7 26 14 36 19 SW 51 6 0,0
08.07.2020 06:00:00 7,4 3,5 27 14 32 17 WSW 64 0 0,0
08.07.2020 05:00:00 7,1 3,3 26 14 31 17 WSW 63 0 0,0
08.07.2020 04:00:00 7,0 3,5 26 14 29 16 WSW 58 0 0,0
08.07.2020 03:00:00 7,3 3,7 26 14 29 15 SW 61 0 0,0
08.07.2020 02:00:00 7,4 3,6 24 13 28 15 WSW 70 0 0,0
08.07.2020 01:00:00 7,1 3,5 21 11 25 14 WSW 75 0 0,0
08.07.2020 00:00:00 7,6 3,5 19 10 23 13 WSW 63 0 0,0
07.07.2020 23:00:00 7,8 3,6 18 10 20 11 WSW 71 0 0,0
07.07.2020 22:00:00 7,7 3,5 17 9 19 10 SW 73 0 0,0
07.07.2020 21:00:00 8,7 4,2 14 8 20 11 W 75 29 0,0
07.07.2020 20:00:00 9,0 3,9 14 8 24 13 W 75 37 0,0
07.07.2020 19:00:00 9,6 3,3 14 8 26 14 WSW 68 30 0,0
07.07.2020 18:00:00 10,8 2,8 21 11 31 17 W 75 40 0,0
07.07.2020 17:00:00 11,4 4,1 17 9 33 18 W 75 40 0,0
07.07.2020 16:00:00 10,1 3,5 21 11 32 17 W 71 27 0,0
07.07.2020 15:00:00 10,1 3,5 16 9 31 17 W 74 27 0,0
07.07.2020 14:00:00 9,9 4,0 14 7 34 18 WNW 75 32 0,0
07.07.2020 13:00:00 8,0 3,5 13 7 31 17 W 75 15 0,0
07.07.2020 12:00:00 8,9 4,1 13 7 31 17 WNW 56 33 0,0
07.07.2020 11:00:00 7,7 3,2 18 10 32 18 W 65 46 0,0
07.07.2020 10:00:00 6,8 2,6 19 10 32 17 WNW 48 50 0,0
07.07.2020 09:00:00 6,2 3,4 10 6 23 13 WNW 49 60 0,0
07.07.2020 08:00:00 4,6 3,3 13 7 31 17 WNW 0,9 51 0,0
07.07.2020 07:00:00 3,4 3,3 19 10 28 15 NW 0,1 2 0,0
07.07.2020 06:00:00 3,2 3,2 23 13 32 18 NNW 0,1 0 0,0

tt = temperature
td = dewpoint
ff = wind speed
fx = gusts
dd = wind direction
vv = visibility
sd = sunshine duration
rr = precipitation

Next stations